.
WxDataArchive / Data Records for 2008-05-06
2008-05-05 May 2008 2008-05-07

Data Records for Tuesday, 06 May 2008

Time	Temp	Chill	HIndex	Humid	Dewpt	 Wind 	HiWind	WindDir	Rain 	Barom 
-----	----	-----	------	-----	-----	------	------	-------	-----	----- 
00:00	56.3	56.3	56.3	72	47.4	0	1	338	0.00	29.969 
00:05	56.3	56.3	56.3	72	47.4	0	0	---	0.00	29.968 
00:10	56.3	56.3	56.3	72	47.4	0	1	338	0.00	29.968 
00:15	56.2	56.2	56.2	72	47.3	0	2	338	0.00	29.968 
00:20	55.9	55.9	55.9	72	47.0	0	0	---	0.00	29.968 
00:25	55.7	55.7	55.7	73	47.2	0	0	---	0.00	29.967 
00:30	55.6	55.6	55.6	73	47.1	0	0	---	0.00	29.966 
00:35	55.3	55.3	55.3	73	46.8	0	0	---	0.00	29.966 
00:40	55.0	55.0	55.0	74	46.9	0	0	---	0.00	29.966 
00:45	54.5	54.5	54.5	75	46.7	0	0	---	0.00	29.965 
00:50	54.2	54.2	54.2	76	46.8	0	0	---	0.00	29.966 
00:55	53.8	53.8	53.8	76	46.4	0	0	---	0.00	29.965 
01:00	53.5	53.5	53.5	77	46.5	0	0	---	0.00	29.964 
01:05	53.1	53.1	53.1	77	46.1	0	0	---	0.00	29.962 
01:10	52.8	52.8	52.8	78	46.1	0	0	---	0.00	29.959 
01:15	52.5	52.5	52.5	79	46.2	0	0	---	0.00	29.961 
01:20	52.2	52.2	52.2	80	46.2	0	0	---	0.00	29.964 
01:25	52.2	52.2	52.2	81	46.5	0	0	---	0.00	29.963 
01:30	52.3	52.3	52.3	80	46.3	0	1	338	0.00	29.959 
01:35	52.8	52.8	52.8	77	45.8	0	1	338	0.00	29.955 
01:40	53.2	53.2	53.2	76	45.8	0	1	338	0.00	29.956 
01:45	53.3	53.3	53.3	75	45.6	0	1	338	0.00	29.953 
01:50	53.5	53.5	53.5	74	45.4	0	0	---	0.00	29.952 
01:55	53.5	53.5	53.5	74	45.4	0	1	338	0.00	29.951 
02:00	53.6	53.6	53.6	74	45.5	0	0	---	0.00	29.951 
02:05	53.6	53.6	53.6	73	45.2	0	0	---	0.00	29.951 
02:10	53.6	53.6	53.6	73	45.2	0	1	338	0.00	29.949 
02:15	53.6	53.6	53.6	73	45.2	0	1	338	0.00	29.948 
02:20	53.6	53.6	53.6	73	45.2	0	0	---	0.00	29.949 
02:25	53.5	53.5	53.5	73	45.1	0	0	---	0.00	29.950 
02:30	53.2	53.2	53.2	74	45.1	0	0	---	0.00	29.950 
02:35	52.9	52.9	52.9	75	45.2	0	0	---	0.00	29.950 
02:40	52.5	52.5	52.5	75	44.8	0	0	---	0.00	29.950 
02:45	52.2	52.2	52.2	76	44.9	0	0	---	0.00	29.951 
02:50	51.7	51.7	51.7	77	44.7	0	0	---	0.00	29.949 
02:55	51.4	51.4	51.4	78	44.8	0	0	---	0.00	29.949 
03:00	51.1	51.1	51.1	79	44.8	0	0	---	0.00	29.944 
03:05	50.8	50.8	50.8	79	44.5	0	0	---	0.00	29.942 
03:10	50.4	50.4	50.4	80	44.5	0	0	---	0.00	29.942 
03:15	50.1	50.1	50.1	81	44.5	0	0	---	0.00	29.941 
03:20	49.8	49.8	49.8	82	44.5	0	0	---	0.00	29.941 
03:25	49.5	49.5	49.5	83	44.6	0	0	---	0.00	29.941 
03:30	49.2	49.2	49.2	84	44.6	0	0	---	0.00	29.941 
03:35	48.9	48.9	48.9	84	44.3	0	0	---	0.00	29.941 
03:40	48.8	48.8	48.8	85	44.5	0	0	---	0.00	29.940 
03:45	48.5	48.5	48.5	85	44.2	0	0	---	0.00	29.940 
03:50	48.2	48.2	48.2	86	44.2	0	0	---	0.00	29.940 
03:55	48.0	48.0	48.0	86	44.0	0	0	---	0.00	29.939 
04:00	47.9	47.9	47.9	87	44.2	0	0	---	0.00	29.941 
04:05	47.7	47.7	47.7	87	44.0	0	0	---	0.00	29.942 
04:10	47.4	47.4	47.4	87	43.7	0	0	---	0.00	29.943 
04:15	47.3	47.3	47.3	88	43.9	0	0	---	0.00	29.943 
04:20	47.3	47.3	47.3	88	43.9	0	0	---	0.00	29.944 
04:25	47.1	47.1	47.1	89	44.0	0	0	---	0.00	29.952 
04:30	47.0	47.0	47.0	89	43.9	0	0	---	0.00	29.956 
04:35	46.8	46.8	46.8	89	43.7	0	0	---	0.00	29.957 
04:40	46.7	46.7	46.7	89	43.6	0	0	---	0.00	29.957 
04:45	46.5	46.5	46.5	90	43.7	0	0	---	0.00	29.954 
04:50	46.4	46.4	46.4	90	43.6	0	0	---	0.00	29.950 
04:55	46.2	46.2	46.2	90	43.4	0	0	---	0.00	29.945 
05:00	46.2	46.2	46.2	90	43.4	0	0	---	0.00	29.948 
05:05	46.1	46.1	46.1	91	43.6	0	0	---	0.00	29.949 
05:10	46.2	46.2	46.2	91	43.7	0	0	---	0.00	29.946 
05:15	46.2	46.2	46.2	91	43.7	0	0	---	0.00	29.946 
05:20	46.2	46.2	46.2	91	43.7	0	0	---	0.00	29.947 
05:25	46.2	46.2	46.2	92	44.0	0	0	---	0.00	29.949 
05:30	46.4	46.4	46.4	92	44.2	0	0	---	0.00	29.946 
05:35	46.2	46.2	46.2	92	44.0	0	0	---	0.00	29.945 
05:40	46.2	46.2	46.2	92	44.0	0	0	---	0.00	29.945 
05:45	46.1	46.1	46.1	92	43.9	0	0	---	0.00	29.944 
05:50	46.4	46.4	46.4	92	44.2	0	0	---	0.00	29.946 
05:55	46.7	46.7	46.7	92	44.5	0	0	---	0.00	29.952 
06:00	47.1	47.1	47.1	93	45.2	0	1	338	0.00	29.956 
06:05	47.6	47.6	47.6	93	45.7	0	1	338	0.00	29.964 
06:10	48.3	48.3	48.3	93	46.4	0	1	338	0.00	29.965 
06:15	49.1	49.1	49.1	92	46.9	0	1	338	0.00	29.966 
06:20	49.9	49.9	49.9	91	47.4	0	1	338	0.00	29.963 
06:25	50.8	50.8	50.8	89	47.7	0	1	338	0.00	29.965 
06:30	51.6	51.6	51.6	87	47.9	0	1	338	0.00	29.965 
06:35	52.3	52.3	52.3	85	47.9	0	1	338	0.00	29.963 
06:40	53.2	53.2	53.2	82	47.8	0	1	338	0.00	29.963 
06:45	54.2	54.2	54.2	80	48.2	0	1	315	0.00	29.960 
06:50	54.8	54.8	54.8	78	48.1	0	1	315	0.00	29.960 
06:55	55.7	55.7	55.7	76	48.3	0	1	315	0.00	29.959 
07:00	56.3	56.3	56.3	74	48.1	0	2	315	0.00	29.956 
07:05	56.7	56.7	56.7	74	48.5	0	3	315	0.00	29.953 
07:10	57.2	57.2	57.2	72	48.3	0	4	292	0.00	29.953 
07:15	57.6	57.6	57.6	71	48.3	1	3	248	0.00	29.955 
07:20	58.1	58.1	58.1	70	48.4	1	2	248	0.00	29.955 
07:25	58.4	58.4	58.4	70	48.7	1	2	248	0.00	29.956 
07:30	59.0	59.0	59.0	69	48.8	0	3	248	0.00	29.957 
07:35	59.5	59.5	59.5	67	48.5	1	3	248	0.00	29.958 
07:40	59.9	59.9	59.9	66	48.5	1	3	225	0.00	29.956 
07:45	60.4	60.4	60.4	66	49.0	1	4	225	0.00	29.956 
07:50	60.9	60.9	60.9	64	48.6	1	3	248	0.00	29.955 
07:55	61.5	61.5	61.5	63	48.8	1	2	248	0.00	29.955 
08:00	62.0	62.0	62.0	63	49.3	1	3	248	0.00	29.953 
08:05	62.3	62.3	62.3	60	48.2	1	4	248	0.00	29.957 
08:10	62.6	62.6	62.6	60	48.5	1	2	270	0.00	29.958 
08:15	62.7	62.7	62.7	58	47.7	1	5	248	0.00	29.959 
08:20	63.2	63.2	63.2	58	48.2	1	2	248	0.00	29.958 
08:25	63.5	63.5	63.5	58	48.5	1	3	248	0.00	29.957 
08:30	63.9	63.9	63.9	57	48.4	1	5	270	0.00	29.960 
08:35	64.2	64.2	64.2	57	48.6	1	4	270	0.00	29.957 
08:40	64.5	64.5	64.5	56	48.4	1	4	248	0.00	29.957 
08:45	65.0	65.0	65.0	56	48.9	0	2	225	0.00	29.956 
08:50	65.5	65.5	65.5	55	48.9	1	3	248	0.00	29.961 
08:55	65.8	65.8	65.8	57	50.1	0	2	248	0.00	29.958 
09:00	66.3	66.3	66.3	54	49.1	1	3	248	0.00	29.955 
09:05	66.6	66.6	66.6	53	48.9	1	2	248	0.00	29.958 
09:10	66.9	66.9	66.9	52	48.7	0	3	248	0.00	29.956 
09:15	67.4	67.4	67.4	53	49.7	0	1	248	0.00	29.955 
09:20	68.1	68.1	68.1	50	48.7	0	2	248	0.00	29.953 
09:25	69.1	69.1	69.1	51	50.2	0	1	248	0.00	29.950 
09:30	69.6	69.6	69.6	48	49.0	0	1	248	0.00	29.951 
09:35	70.1	70.1	70.1	50	50.6	0	2	248	0.00	29.949 
09:40	70.3	70.3	70.3	47	49.1	1	3	315	0.00	29.950 
09:45	70.1	70.1	70.1	49	50.0	1	4	315	0.00	29.951 
09:50	70.4	70.4	70.4	49	50.3	1	4	112	0.00	29.950 
09:55	70.6	70.6	70.6	49	50.5	1	3	248	0.00	29.952 
10:00	70.6	70.6	70.6	47	49.4	1	6	248	0.00	29.954 
10:05	70.8	70.8	70.8	49	50.7	1	3	248	0.00	29.954 
10:10	70.9	70.9	70.9	47	49.7	1	3	248	0.00	29.955 
10:15	70.9	70.9	70.9	46	49.1	1	4	248	0.00	29.953 
10:20	71.6	71.6	71.6	49	51.4	1	3	248	0.00	29.951 
10:25	72.5	72.5	72.5	44	49.3	1	3	248	0.00	29.951 
10:30	73.0	73.0	73.0	43	49.2	1	4	248	0.00	29.950 
10:35	73.2	73.2	73.2	42	48.7	1	3	248	0.00	29.950 
10:40	73.7	73.7	73.7	43	49.8	0	3	248	0.00	29.951 
10:45	74.2	74.2	74.2	36	45.5	1	4	248	0.00	29.951 
10:50	74.4	74.4	74.4	39	47.8	1	2	225	0.00	29.950 
10:55	75.1	75.1	77.6	43	51.1	1	3	225	0.00	29.946 
11:00	75.4	75.4	77.4	35	45.8	1	7	135	0.00	29.946 
11:05	75.6	75.6	77.1	30	42.0	1	4	248	0.00	29.946 
11:10	75.4	75.4	77.1	31	42.6	2	5	248	0.00	29.943 
11:15	75.3	75.3	77.0	30	41.7	2	4	248	0.00	29.939 
11:20	75.6	75.6	77.3	32	43.6	1	4	248	0.00	29.939 
11:25	76.1	76.1	77.4	32	44.1	1	4	248	0.00	29.938 
11:30	76.3	76.3	77.6	33	45.1	1	4	248	0.00	29.936 
11:35	76.7	76.7	77.2	25	38.2	2	7	90	0.00	29.935 
11:40	76.5	76.5	77.3	27	40.0	2	4	248	0.00	29.935 
11:45	76.8	76.8	77.3	26	39.3	1	4	248	0.00	29.935 
11:50	77.2	77.2	77.7	29	42.5	0	2	270	0.00	29.932 
11:55	77.9	77.9	77.9	27	41.2	1	3	270	0.00	29.931 
12:00	78.1	78.1	78.0	27	41.4	2	6	112	0.00	29.930 
12:05	77.9	77.9	77.9	27	41.2	1	3	270	0.00	29.931 
12:10	78.1	78.1	78.0	27	41.4	2	4	248	0.00	29.930 
12:15	78.1	78.1	77.9	26	40.4	1	2	315	0.00	29.930 
12:20	77.7	77.7	77.7	26	40.1	2	5	248	0.00	29.930 
12:25	77.6	77.6	77.6	25	39.0	2	7	248	0.00	29.931 
12:30	77.7	77.7	77.8	27	41.0	1	5	292	0.00	29.928 
12:35	78.1	78.1	77.9	26	40.4	2	9	248	0.00	29.925 
12:40	78.5	78.5	78.0	25	39.7	1	4	248	0.00	29.921 
12:45	78.6	78.6	78.1	25	39.8	2	7	248	0.00	29.919 
12:50	78.5	78.5	78.2	27	41.7	1	4	248	0.00	29.919 
12:55	78.1	78.1	78.0	27	41.4	1	2	292	0.00	29.919 
13:00	77.7	77.7	77.6	25	39.1	1	5	270	0.00	29.918 
13:05	78.3	78.3	78.0	26	40.6	1	4	270	0.00	29.917 
13:10	78.6	78.6	78.3	28	42.7	2	4	248	0.00	29.915 
13:15	79.0	79.0	78.4	27	42.1	2	6	248	0.00	29.914 
13:20	79.2	79.2	78.7	29	44.2	2	5	248	0.00	29.915 
13:25	78.8	78.8	78.3	27	42.0	1	4	90	0.00	29.915 
13:30	78.8	78.8	78.4	28	42.9	2	6	270	0.00	29.914 
13:35	78.5	78.5	78.1	26	40.7	2	5	248	0.00	29.911 
13:40	78.1	78.1	78.0	27	41.4	2	4	270	0.00	29.908 
13:45	78.5	78.5	78.3	29	43.6	1	4	248	0.00	29.906 
13:50	79.4	79.4	78.6	26	41.5	1	2	270	0.00	29.906 
13:55	79.6	79.6	78.6	25	40.7	2	3	270	0.00	29.900 
14:00	78.3	78.3	78.1	28	42.5	1	3	270	0.00	29.900 
14:05	78.3	78.3	78.3	31	45.2	1	4	292	0.00	29.904 
14:10	79.4	79.4	78.7	28	43.4	1	5	0	0.00	29.902 
14:15	80.1	80.1	79.0	26	42.1	2	5	248	0.00	29.902 
14:20	79.8	79.8	78.8	26	41.8	1	6	248	0.00	29.899 
14:25	79.0	79.0	78.4	26	41.2	1	7	225	0.00	29.898 
14:30	78.6	78.6	78.3	28	42.7	1	4	248	0.00	29.888 
14:35	79.4	79.4	78.5	25	40.5	1	3	292	0.00	29.885 
14:40	80.3	80.3	79.2	28	44.2	1	3	248	0.00	29.884 
14:45	80.7	80.7	79.4	26	42.6	2	5	270	0.00	29.882 
14:50	79.6	79.6	78.7	26	41.7	1	4	248	0.00	29.884 
14:55	78.6	78.6	78.3	28	42.7	1	2	248	0.00	29.884 
15:00	77.9	77.9	77.9	28	42.1	3	7	270	0.00	29.880 
15:05	77.4	77.4	77.7	28	41.7	3	6	248	0.00	29.883 
15:10	76.7	76.7	77.6	31	43.8	1	5	270	0.00	29.889 
15:15	76.0	76.0	77.5	33	44.8	1	3	270	0.00	29.889 
15:20	75.3	75.3	77.3	34	45.0	1	3	225	0.00	29.891 
15:25	75.1	75.1	77.1	32	43.2	1	6	270	0.00	29.891 
15:30	74.9	74.9	74.9	33	43.8	1	4	270	0.00	29.893 
15:35	74.0	74.0	74.0	32	42.3	2	5	270	0.00	29.894 
15:40	73.2	73.2	73.2	33	42.4	0	2	248	0.00	29.893 
15:45	72.7	72.7	72.7	35	43.5	0	1	248	0.00	29.893 
15:50	72.3	72.3	72.3	38	45.3	0	1	292	0.00	29.893 
15:55	71.8	71.8	71.8	43	48.1	0	0	---	0.00	29.892 
16:00	70.9	70.9	70.9	41	46.0	1	5	338	0.00	29.894 
16:05	70.4	70.4	70.4	45	48.0	0	3	338	0.00	29.887 
16:10	70.3	70.3	70.3	46	48.5	0	1	112	0.00	29.883 
16:15	70.4	70.4	70.4	48	49.8	0	1	112	0.00	29.884 
16:20	70.4	70.4	70.4	47	49.2	0	2	112	0.00	29.881 
16:25	70.3	70.3	70.3	45	47.9	0	2	112	0.00	29.883 
16:30	70.3	70.3	70.3	46	48.5	0	1	112	0.00	29.882 
16:35	70.1	70.1	70.1	46	48.3	0	0	---	0.00	29.882 
16:40	70.1	70.1	70.1	47	48.9	0	0	---	0.00	29.890 
16:45	70.1	70.1	70.1	54	52.7	0	1	112	0.03	29.897 
16:50	68.4	68.4	68.4	64	55.7	1	3	112	0.00	29.890 
16:55	67.3	67.3	67.3	61	53.4	1	3	135	0.00	29.885 
17:00	67.9	67.9	67.9	59	53.0	0	2	135	0.00	29.882 
17:05	68.8	68.8	68.8	59	53.9	0	1	135	0.00	29.882 
17:10	69.4	69.4	69.4	51	50.5	0	2	135	0.00	29.881 
17:15	70.3	70.3	70.3	52	51.8	1	2	135	0.00	29.879 
17:20	70.8	70.8	70.8	52	52.3	1	4	112	0.00	29.876 
17:25	70.9	70.9	70.9	49	50.8	0	2	112	0.00	29.875 
17:30	70.9	70.9	70.9	46	49.1	0	2	135	0.00	29.875 
17:35	71.1	71.1	71.1	45	48.7	0	2	135	0.00	29.873 
17:40	71.3	71.3	71.3	50	51.7	0	2	135	0.00	29.871 
17:45	71.5	71.5	71.5	48	50.8	1	2	135	0.00	29.866 
17:50	71.6	71.6	71.6	49	51.4	0	1	135	0.00	29.866 
17:55	71.6	71.6	71.6	47	50.3	1	2	135	0.00	29.865 
18:00	71.6	71.6	71.6	46	49.7	0	2	135	0.00	29.865 
18:05	71.5	71.5	71.5	49	51.3	0	1	135	0.00	29.856 
18:10	71.3	71.3	71.3	48	50.6	0	1	135	0.00	29.855 
18:15	71.3	71.3	71.3	48	50.6	0	1	135	0.00	29.856 
18:20	71.5	71.5	71.5	47	50.2	0	2	135	0.00	29.855 
18:25	71.5	71.5	71.5	46	49.6	0	2	135	0.00	29.853 
18:30	71.5	71.5	71.5	46	49.6	0	1	135	0.00	29.853 
18:35	71.3	71.3	71.3	47	50.0	0	2	135	0.00	29.854 
18:40	71.1	71.1	71.1	49	51.0	0	1	135	0.00	29.853 
18:45	70.9	70.9	70.9	49	50.8	0	0	---	0.00	29.852 
18:50	70.6	70.6	70.6	48	49.9	0	0	---	0.00	29.852 
18:55	70.3	70.3	70.3	49	50.2	0	0	---	0.00	29.854 
19:00	69.8	69.8	69.8	51	50.8	0	0	---	0.00	29.854 
19:05	69.6	69.6	69.6	53	51.7	0	0	---	0.00	29.849 
19:10	69.3	69.3	69.3	54	51.9	0	0	---	0.00	29.847 
19:15	69.1	69.1	69.1	54	51.7	0	0	---	0.00	29.847 
19:20	68.8	68.8	68.8	54	51.5	0	0	---	0.00	29.846 
19:25	68.4	68.4	68.4	57	52.6	0	0	---	0.00	29.844 
19:30	68.1	68.1	68.1	58	52.8	0	0	---	0.00	29.842 
19:35	67.9	67.9	67.9	57	52.1	0	0	---	0.00	29.846 
19:40	67.8	67.8	67.8	60	53.4	0	0	---	0.00	29.847 
19:45	67.3	67.3	67.3	62	53.8	0	0	---	0.00	29.854 
19:50	66.9	66.9	66.9	61	53.0	0	1	135	0.01	29.852 
19:55	66.8	66.8	66.8	61	52.9	0	2	45	0.00	29.852 
20:00	66.8	66.8	66.8	58	51.5	0	1	45	0.00	29.855 
20:05	67.3	67.3	67.3	55	50.6	0	2	45	0.00	29.853 
20:10	67.3	67.3	67.3	55	50.6	0	2	45	0.00	29.853 
20:15	67.3	67.3	67.3	52	49.1	0	3	45	0.00	29.853 
20:20	67.1	67.1	67.1	55	50.4	0	2	45	0.00	29.850 
20:25	66.8	66.8	66.8	58	51.5	0	1	45	0.00	29.851 
20:30	66.3	66.3	66.3	62	52.9	0	0	---	0.00	29.851 
20:35	65.6	65.6	65.6	66	53.9	0	0	---	0.00	29.851 
20:40	64.5	64.5	64.5	68	53.7	1	2	45	0.00	29.851 
20:45	63.9	63.9	63.9	70	53.9	0	1	45	0.00	29.853 
20:50	63.5	63.5	63.5	70	53.5	0	2	45	0.00	29.853 
20:55	63.5	63.5	63.5	66	51.9	2	4	90	0.00	29.849 
21:00	63.9	63.9	63.9	65	51.9	1	3	90	0.00	29.850 
21:05	64.2	64.2	64.2	61	50.5	1	2	90	0.00	29.847 
21:10	65.0	65.0	65.0	59	50.3	2	4	90	0.00	29.838 
21:15	65.3	65.3	65.3	58	50.1	0	1	90	0.00	29.837 
21:20	65.5	65.5	65.5	58	50.3	0	1	90	0.00	29.838 
21:25	65.5	65.5	65.5	58	50.3	0	1	90	0.00	29.839 
21:30	65.5	65.5	65.5	57	49.9	0	2	90	0.00	29.835 
21:35	65.8	65.8	65.8	56	49.7	0	3	112	0.00	29.833 
21:40	65.8	65.8	65.8	56	49.7	0	1	112	0.00	29.833 
21:45	65.8	65.8	65.8	56	49.7	0	1	135	0.00	29.830 
21:50	65.6	65.6	65.6	57	49.9	0	1	135	0.00	29.825 
21:55	65.3	65.3	65.3	57	49.7	0	1	135	0.00	29.823 
22:00	65.2	65.2	65.2	57	49.6	0	1	135	0.00	29.823 
22:05	64.8	64.8	64.8	58	49.7	0	0	---	0.00	29.817 
22:10	64.5	64.5	64.5	58	49.4	0	0	---	0.00	29.815 
22:15	64.3	64.3	64.3	60	50.1	0	0	---	0.00	29.816 
22:20	63.9	63.9	63.9	62	50.6	0	0	---	0.00	29.817 
22:25	63.2	63.2	63.2	63	50.4	0	0	---	0.00	29.818 
22:30	62.6	62.6	62.6	65	50.7	0	0	---	0.00	29.819 
22:35	62.0	62.0	62.0	67	50.9	0	0	---	0.00	29.819 
22:40	61.5	61.5	61.5	67	50.4	0	0	---	0.00	29.818 
22:45	61.2	61.2	61.2	71	51.7	0	0	---	0.00	29.819 
22:50	60.7	60.7	60.7	73	52.0	0	0	---	0.00	29.817 
22:55	60.5	60.5	60.5	75	52.5	0	0	---	0.00	29.815 
23:00	60.2	60.2	60.2	74	51.9	0	0	---	0.00	29.813 
23:05	60.1	60.1	60.1	74	51.8	0	0	---	0.00	29.809 
23:10	60.2	60.2	60.2	71	50.8	0	1	135	0.00	29.807 
23:15	60.9	60.9	60.9	68	50.3	0	2	135	0.00	29.801 
23:20	61.6	61.6	61.6	66	50.1	0	2	135	0.00	29.800 
23:25	62.3	62.3	62.3	65	50.4	1	3	135	0.00	29.798 
23:30	62.9	62.9	62.9	63	50.1	0	2	135	0.00	29.797 
23:35	63.2	63.2	63.2	63	50.4	0	1	135	0.00	29.796 
23:40	63.5	63.5	63.5	63	50.7	0	2	135	0.00	29.797 
23:45	63.5	63.5	63.5	62	50.2	0	2	135	0.00	29.797 
23:50	63.7	63.7	63.7	62	50.4	0	1	135	0.00	29.798 
23:55	63.7	63.7	63.7	62	50.4	0	1	135	0.00	29.800 

CoCoRaHS
IN-AL-39
A2 Web Hosting
Creative Commons License
GoDaddy
Look for:

loaded 2017-12-10 21:33:15 • last modified 2010-11-18 10:43:29
Privacy PolicyDisclaimer
• wx.awcolley.com is powered by PmWiki v.2002016 •
• all content (unless otherwise noted) © 2017 A W Colley